FW7257 Weather Reports


Display with metric or nautical units.
time (UTC)temp
F
wind
direction
speed
MPH
gust
MPH
rain 1hr
in
rain 24hr
in
rain mn
in
humidity
%
barometer
mb
20220929050942 55 144 1.0 7.0 0.00 0.00 0.00 69 1023.4
20220929050441 55 99 1.0 7.0 0.00 0.00 0.00 70 1023.5
20220929045936 55 176 6.0 6.0 0.00 0.00 0.00 69 1023.5
20220929045442 55 239 3.0 5.0 0.00 0.00 0.00 70 1023.8
20220929044938 55 136 0.0 5.0 0.00 0.00 0.00 70 1023.9
20220929044438 55 141 1.0 5.0 0.00 0.00 0.00 70 1023.9
20220929043936 55 132 1.0 5.0 0.00 0.00 0.00 70 1023.9
20220929043435 55 153 2.0 3.0 0.00 0.00 0.00 71 1023.9
20220929042938 55 0 0.0 3.0 0.00 0.00 0.00 70 1023.9
20220929042435 55 113 1.0 3.0 0.00 0.00 0.00 71 1024.0
20220929041937 55 167 1.0 3.0 0.00 0.00 0.00 71 1024.1
20220929041441 55 0 0.0 2.0 0.00 0.00 0.00 71 1024.1
20220929040941 55 189 1.0 3.0 0.00 0.00 0.00 71 1024.0
20220929040437 55 150 1.0 3.0 0.00 0.00 0.00 71 1024.1
20220929035935 55 157 1.0 2.0 0.00 0.00 0.00 72 1024.1
20220929035441 55 0 0.0 3.0 0.00 0.00 0.00 72 1024.0
20220929034941 55 124 1.0 3.0 0.00 0.00 0.00 72 1024.0
20220929034436 55 113 1.0 1.0 0.00 0.00 0.00 72 1023.9
20220929033943 55 0 0.0 2.0 0.00 0.00 0.00 71 1024.0
20220929033443 55 0 0.0 2.0 0.00 0.00 0.00 72 1024.0
20220929032940 55 149 1.0 2.0 0.00 0.00 0.00 72 1024.0
20220929032437 55 0 0.0 1.0 0.00 0.00 0.00 72 1024.1
20220929031943 55 0 0.0 2.0 0.00 0.00 0.00 72 1024.2
20220929031439 54 150 0.0 2.0 0.00 0.00 0.00 72 1024.1
20220929030943 54 150 1.0 2.0 0.00 0.00 0.00 74 1024.1
20220929030439 54 0 0.0 2.0 0.00 0.00 0.00 74 1024.1
20220929025941 54 0 0.0 0.0 0.00 0.00 0.00 74 1024.0
20220929025437 54 0 0.0 0.0 0.00 0.00 0.00 74 1024.1
20220929024941 55 0 0.0 1.0 0.00 0.00 0.00 73 1024.0
20220929024436 55 0 0.0 1.0 0.00 0.00 0.00 72 1023.8
20220929023936 55 0 0.0 1.0 0.00 0.00 0.00 72 1023.9
20220929023442 55 0 0.0 0.0 0.00 0.00 0.00 72 1023.8
20220929022939 55 0 0.0 0.0 0.00 0.00 0.00 72 1023.8
20220929022438 56 0 0.0 1.0 0.00 0.00 0.00 71 1023.5
20220929021939 56 0 0.0 1.0 0.00 0.00 0.00 70 1023.5
20220929021437 56 0 0.0 1.0 0.00 0.00 0.00 70 1023.5
20220929020940 56 0 0.0 1.0 0.00 0.00 0.00 69 1023.4
20220929020436 56 0 0.0 1.0 0.00 0.00 0.00 69 1023.4
20220929015939 56 0 0.0 1.0 0.00 0.00 0.00 69 1023.4
20220929015437 56 0 0.0 1.0 0.00 0.00 0.00 69 1023.3
20220929014937 56 137 1.0 1.0 0.00 0.00 0.00 69 1023.2
20220929014440 56 0 0.0 1.0 0.00 0.00 0.00 69 1023.2
20220929013941 57 0 0.0 1.0 0.00 0.00 0.00 68 1023.1
20220929013443 57 0 0.0 0.0 0.00 0.00 0.00 67 1023.0
20220929012938 57 0 0.0 0.0 0.00 0.00 0.00 67 1022.9
20220929012438 58 0 0.0 1.0 0.00 0.00 0.00 66 1023.0
20220929011941 58 0 0.0 1.0 0.00 0.00 0.00 65 1022.9
20220929011438 59 0 0.0 1.0 0.00 0.00 0.00 64 1022.7
20220929010943 59 0 0.0 1.0 0.00 0.00 0.00 63 1022.7
20220929010439 59 0 0.0 1.0 0.00 0.00 0.00 62 1022.7
20220929005937 59 0 0.0 1.0 0.00 0.00 0.00 61 1022.6
20220929005442 59 0 0.0 1.0 0.00 0.00 0.00 61 1022.5
20220929004938 59 116 0.0 1.0 0.00 0.00 0.00 60 1022.5
20220929004437 60 0 0.0 2.0 0.00 0.00 0.00 60 1022.5
20220929003937 60 0 0.0 2.0 0.00 0.00 0.00 59 1022.4
20220929003438 60 0 0.0 0.0 0.00 0.00 0.00 59 1022.5
20220929002940 61 0 0.0 0.0 0.00 0.00 0.00 58 1022.5
20220929002441 61 0 0.0 1.0 0.00 0.00 0.00 56 1022.5
20220929001937 62 0 0.0 1.0 0.00 0.00 0.00 56 1022.3
20220929001442 62 0 0.0 1.0 0.00 0.00 0.00 55 1022.4
20220929000942 62 0 0.0 1.0 0.00 0.00 0.00 54 1022.4
20220929000441 63 0 0.0 2.0 0.00 0.00 0.00 53 1022.4
20220928235940 63 155 0.0 3.0 0.00 0.00 0.00 52 1022.4
20220928235442 63 159 1.0 3.0 0.00 0.00 0.00 52 1022.4
20220928234937 64 141 0.0 3.0 0.00 0.00 0.00 52 1022.4
20220928234440 64 0 0.0 3.0 0.00 0.00 0.00 51 1022.3
20220928233942 64 124 1.0 3.0 0.00 0.00 0.00 51 1022.3
20220928233440 65 151 0.0 2.0 0.00 0.00 0.00 51 1022.2
20220928232942 65 123 1.0 4.0 0.00 0.00 0.00 51 1022.2
20220928232439 66 152 2.0 4.0 0.00 0.00 0.00 50 1022.1
20220928231941 66 114 1.0 5.0 0.00 0.00 0.00 49 1022.1
20220928231441 66 188 2.0 6.0 0.00 0.00 0.00 48 1022.0
20220928230940 67 96 2.0 8.0 0.00 0.00 0.00 47 1021.9
20220928230440 67 184 2.0 8.0 0.00 0.00 0.00 46 1021.9
20220928225938 68 104 1.0 6.0 0.00 0.00 0.00 45 1021.8
20220928225442 69 165 1.0 4.0 0.00 0.00 0.00 43 1021.8
20220928224943 69 287 3.0 5.0 0.00 0.00 0.00 41 1021.7
20220928224439 69 143 1.0 5.0 0.00 0.00 0.00 40 1021.5
20220928223938 69 150 2.0 5.0 0.00 0.00 0.00 40 1021.4
20220928223442 69 120 2.0 4.0 0.00 0.00 0.00 40 1021.4
20220928222942 70 284 3.0 5.0 0.00 0.00 0.00 40 1021.5
20220928222443 70 136 1.0 5.0 0.00 0.00 0.00 40 1021.5
20220928221942 70 155 2.0 5.0 0.00 0.00 0.00 40 1021.4
20220928221438 70 150 1.0 7.0 0.00 0.00 0.00 39 1021.5
20220928220939 70 141 2.0 7.0 0.00 0.00 0.00 38 1021.6
20220928220439 70 267 5.0 5.0 0.00 0.00 0.00 39 1021.5
20220928215941 70 153 2.0 5.0 0.00 0.00 0.00 38 1021.4
20220928215440 70 160 1.0 6.0 0.00 0.00 0.00 38 1021.4
20220928214939 70 164 1.0 8.0 0.00 0.00 0.00 37 1021.4
20220928214436 70 146 2.0 8.0 0.00 0.00 0.00 37 1021.4
20220928213940 70 131 1.0 9.0 0.00 0.00 0.00 36 1021.4
20220928213441 70 65 2.0 10.0 0.00 0.00 0.00 36 1021.5
20220928212939 70 168 2.0 10.0 0.00 0.00 0.00 36 1021.5
20220928212442 70 241 3.0 8.0 0.00 0.00 0.00 36 1021.5
20220928211941 70 248 3.0 5.0 0.00 0.00 0.00 35 1021.5
20220928211442 70 0 0.0 5.0 0.00 0.00 0.00 36 1021.5
20220928210942 71 266 3.0 7.0 0.00 0.00 0.00 35 1021.5
20220928210442 71 162 1.0 7.0 0.00 0.00 0.00 36 1021.6
20220928205940 71 155 4.0 7.0 0.00 0.00 0.00 37 1021.6
20220928205439 71 124 2.0 7.0 0.00 0.00 0.00 37 1021.6
20220928204944 71 171 3.0 9.0 0.00 0.00 0.00 36 1021.7
20220928204435 71 157 2.0 9.0 0.00 0.00 0.00 36 1021.7
20220928203941 71 160 4.0 7.0 0.00 0.00 0.00 36 1021.7
20220928203439 71 256 5.0 8.0 0.00 0.00 0.00 35 1021.8
20220928202936 71 189 3.0 8.0 0.00 0.00 0.00 34 1021.9
20220928202438 71 267 5.0 10.0 0.00 0.00 0.00 36 1021.8
20220928201940 71 268 4.0 11.0 0.00 0.00 0.00 35 1021.9
20220928201544 71 195 4.0 11.0 0.00 0.00 0.00 34 1021.9
20220928201042 71 158 5.0 8.0 0.00 0.00 0.00 34 1022.0
20220928200542 71 154 5.0 9.0 0.00 0.00 0.00 34 1022.1
20220928200044 71 153 3.0 9.0 0.00 0.00 0.00 34 1022.0
20220928195641 71 264 7.0 8.0 0.00 0.00 0.00 36 1022.1
20220928195137 71 100 2.0 8.0 0.00 0.00 0.00 36 1021.9
20220928194637 71 0 0.0 8.0 0.00 0.00 0.00 36 1022.0
20220928194140 71 288 3.0 7.0 0.00 0.00 0.00 37 1022.1
20220928193640 71 215 2.0 8.0 0.00 0.00 0.00 37 1022.1
20220928193139 71 177 6.0 8.0 0.00 0.00 0.00 35 1022.3
20220928192639 71 90 3.0 7.0 0.00 0.00 0.00 37 1022.2
20220928192136 71 116 1.0 7.0 0.00 0.00 0.00 36 1022.4
20220928191637 71 150 4.0 7.0 0.00 0.00 0.00 36 1022.5
20220928191137 71 112 3.0 7.0 0.00 0.00 0.00 37 1022.5
20220928190645 71 257 6.0 7.0 0.00 0.00 0.00 38 1022.4
20220928190140 71 122 1.0 11.0 0.00 0.00 0.00 35 1022.4
20220928185638 71 162 1.0 11.0 0.00 0.00 0.00 36 1022.6
20220928185140 71 157 5.0 7.0 0.00 0.00 0.00 35 1022.8
20220928184637 72 153 2.0 5.0 0.00 0.00 0.00 35 1022.7
20220928184140 72 155 4.0 5.0 0.00 0.00 0.00 34 1022.7
20220928183636 72 154 3.0 5.0 0.00 0.00 0.00 34 1022.7
20220928183139 71 214 3.0 6.0 0.00 0.00 0.00 36 1022.8
20220928182635 71 160 2.0 6.0 0.00 0.00 0.00 34 1022.8
20220928182142 71 249 5.0 5.0 0.00 0.00 0.00 33 1022.9
20220928181640 70 242 4.0 8.0 0.00 0.00 0.00 33 1023.1
20220928181139 70 165 0.0 8.0 0.00 0.00 0.00 37 1023.3
20220928180640 70 82 2.0 8.0 0.00 0.00 0.00 32 1023.3
20220928180137 70 221 3.0 6.0 0.00 0.00 0.00 35 1023.4
20220928175636 70 242 6.0 7.0 0.00 0.00 0.00 36 1023.5
20220928175140 70 139 1.0 9.0 0.00 0.00 0.00 37 1023.6
20220928174644 70 141 1.0 9.0 0.00 0.00 0.00 36 1023.7
20220928174141 70 98 1.0 7.0 0.00 0.00 0.00 39 1023.7
20220928173639 70 160 2.0 7.0 0.00 0.00 0.00 38 1023.7
20220928173141 69 163 4.0 8.0 0.00 0.00 0.00 37 1023.7
20220928172639 69 160 4.0 8.0 0.00 0.00 0.00 36 1024.0
20220928172139 70 269 5.0 8.0 0.00 0.00 0.00 37 1024.0
20220928171642 69 113 1.0 7.0 0.00 0.00 0.00 40 1024.0
20220928171136 69 181 2.0 7.0 0.00 0.00 0.00 39 1024.2
20220928170644 69 221 3.0 7.0 0.00 0.00 0.00 40 1024.1
20220928170141 69 55 3.0 7.0 0.00 0.00 0.00 40 1024.2
20220928165641 69 217 2.0 7.0 0.00 0.00 0.00 39 1024.1
20220928165136 68 184 3.0 7.0 0.00 0.00 0.00 40 1024.0
20220928164644 69 171 3.0 7.0 0.00 0.00 0.00 39 1024.0
20220928164139 69 247 3.0 8.0 0.00 0.00 0.00 40 1024.1
20220928163637 68 160 4.0 8.0 0.00 0.00 0.00 38 1024.0
20220928163143 68 142 3.0 8.0 0.00 0.00 0.00 39 1024.3
20220928162638 68 70 3.0 7.0 0.00 0.00 0.00 42 1024.5
20220928162136 67 84 3.0 7.0 0.00 0.00 0.00 41 1024.6
20220928161640 67 141 2.0 7.0 0.00 0.00 0.00 39 1024.4
20220928161144 67 146 3.0 7.0 0.00 0.00 0.00 40 1024.4
20220928160638 67 165 5.0 7.0 0.00 0.00 0.00 39 1024.5
20220928160139 67 118 2.0 7.0 0.00 0.00 0.00 41 1024.4
20220928155639 67 207 3.0 8.0 0.00 0.00 0.00 41 1024.4
20220928155139 66 119 2.0 8.0 0.00 0.00 0.00 41 1024.5
20220928154642 66 65 2.0 8.0 0.00 0.00 0.00 43 1024.5
20220928154138 66 262 5.0 8.0 0.00 0.00 0.00 41 1024.5
20220928153637 66 190 2.0 8.0 0.00 0.00 0.00 43 1024.5
20220928153140 66 165 2.0 11.0 0.00 0.00 0.00 41 1024.5
20220928152639 66 128 3.0 12.0 0.00 0.00 0.00 43 1024.6
20220928152138 66 101 2.0 12.0 0.00 0.00 0.00 44 1024.5
20220928151641 66 133 2.0 9.0 0.00 0.00 0.00 46 1024.5
20220928151136 66 174 2.0 9.0 0.00 0.00 0.00 44 1024.5
20220928150640 65 253 4.0 8.0 0.00 0.00 0.00 44 1024.6
20220928150155 65 101 1.0 8.0 0.00 0.00 0.00 46 1024.5
20220928145652 64 212 5.0 8.0 0.00 0.00 0.00 45 1024.6
20220928145137 64 210 4.0 9.0 0.00 0.00 0.00 45 1024.6
20220928144636 64 141 2.0 9.0 0.00 0.00 0.00 46 1024.6
20220928144142 64 53 6.0 8.0 0.00 0.00 0.00 47 1024.5
20220928143636 64 167 1.0 7.0 0.00 0.00 0.00 45 1024.6
20220928143137 64 260 5.0 8.0 0.00 0.00 0.00 46 1024.6
20220928142640 64 107 1.0 8.0 0.00 0.00 0.00 48 1024.5
20220928142141 63 248 2.0 8.0 0.00 0.00 0.00 47 1024.4
20220928141637 63 247 2.0 6.0 0.00 0.00 0.00 48 1024.5
20220928141136 63 40 2.0 6.0 0.00 0.00 0.00 51 1024.3
20220928140640 62 143 2.0 6.0 0.00 0.00 0.00 50 1024.2
20220928140138 62 256 4.0 6.0 0.00 0.00 0.00 50 1024.1
20220928135641 61 124 0.0 6.0 0.00 0.00 0.00 54 1024.1
20220928135143 61 241 4.0 6.0 0.00 0.00 0.00 56 1024.0
20220928134637 60 220 2.0 6.0 0.00 0.00 0.00 56 1024.0
20220928134142 60 252 4.0 6.0 0.00 0.00 0.00 56 1023.9
20220928133641 59 167 2.0 6.0 0.00 0.00 0.00 59 1023.9
20220928133138 58 187 2.0 4.0 0.00 0.00 0.00 62 1023.9
20220928132643 57 148 2.0 4.0 0.00 0.00 0.00 63 1023.8
20220928132139 56 148 1.0 4.0 0.00 0.00 0.00 65 1023.7
20220928131643 56 192 3.0 4.0 0.00 0.00 0.00 66 1023.6
20220928131142 55 147 1.0 3.0 0.00 0.00 0.00 68 1023.5
20220928130638 54 131 0.0 2.0 0.00 0.00 0.00 70 1023.6
20220928130138 53 128 0.0 1.0 0.00 0.00 0.00 72 1023.6
20220928125640 52 127 1.0 1.0 0.00 0.00 0.00 75 1023.6
20220928125137 51 127 0.0 1.0 0.00 0.00 0.00 78 1023.6
20220928124637 50 0 0.0 1.0 0.00 0.00 0.00 84 1023.5
20220928124142 48 127 1.0 1.0 0.00 0.00 0.00 85 1023.5
20220928123635 47 0 0.0 1.0 0.00 0.00 0.00 87 1023.5
20220928123137 46 0 0.0 1.0 0.00 0.00 0.00 89 1023.5
20220928122636 45 0 0.0 0.0 0.00 0.00 0.00 89 1023.5
20220928122139 45 0 0.0 0.0 0.00 0.00 0.00 89 1023.4
20220928121637 45 0 0.0 0.0 0.00 0.00 0.00 88 1023.4
20220928121142 45 0 0.0 0.0 0.00 0.00 0.00 88 1023.3
20220928120640 45 0 0.0 0.0 0.00 0.00 0.00 88 1023.2
20220928120140 44 0 0.0 0.0 0.00 0.00 0.00 88 1023.2
20220928115639 44 0 0.0 0.0 0.00 0.00 0.00 88 1022.9
20220928115135 44 0 0.0 0.0 0.00 0.00 0.00 88 1022.9
20220928114640 44 0 0.0 0.0 0.00 0.00 0.00 88 1022.8
20220928114136 44 0 0.0 0.0 0.00 0.00 0.00 87 1022.8
20220928113638 45 0 0.0 0.0 0.00 0.00 0.00 86 1022.7
20220928113136 45 0 0.0 0.0 0.00 0.00 0.00 86 1022.8
20220928112642 45 0 0.0 0.0 0.00 0.00 0.00 86 1022.5
20220928112140 45 0 0.0 0.0 0.00 0.00 0.00 86 1022.6
20220928111737 45 0 0.0 0.0 0.00 0.00 0.00 85 1022.7
20220928111245 45 0 0.0 0.0 0.00 0.00 0.00 85 1022.7
20220928110742 45 0 0.0 0.0 0.00 0.00 0.00 86 1022.5
20220928110238 45 0 0.0 0.0 0.00 0.00 0.00 85 1022.6
20220928105737 45 0 0.0 0.0 0.00 0.00 0.00 84 1022.7
20220928105238 46 0 0.0 0.0 0.00 0.00 0.00 84 1022.6
20220928104739 46 0 0.0 0.0 0.00 0.00 0.00 83 1022.5
20220928104242 46 0 0.0 0.0 0.00 0.00 0.00 83 1022.7
20220928103741 46 0 0.0 0.0 0.00 0.00 0.00 82 1022.7
20220928103240 47 0 0.0 0.0 0.00 0.00 0.00 81 1022.7
20220928102741 47 0 0.0 0.0 0.00 0.00 0.00 80 1022.7
20220928102235 47 0 0.0 0.0 0.00 0.00 0.00 80 1022.6
20220928101741 47 0 0.0 0.0 0.00 0.00 0.00 80 1022.6
20220928101239 47 0 0.0 0.0 0.00 0.00 0.00 81 1022.5
20220928100740 47 0 0.0 0.0 0.00 0.00 0.00 80 1022.6
20220928100242 48 0 0.0 0.0 0.00 0.00 0.00 79 1022.6
20220928095739 48 0 0.0 0.0 0.00 0.00 0.00 78 1022.4
20220928095237 49 0 0.0 1.0 0.00 0.00 0.00 78 1022.4
20220928094742 49 0 0.0 1.0 0.00 0.00 0.00 78 1022.4
20220928094237 49 0 0.0 1.0 0.00 0.00 0.00 78 1022.2
20220928093739 49 127 0.0 1.0 0.00 0.00 0.00 76 1022.2
20220928093240 49 0 0.0 0.0 0.00 0.00 0.00 72 1022.1
20220928092739 50 0 0.0 1.0 0.00 0.00 0.00 72 1022.1
20220928092236 50 0 0.0 1.0 0.00 0.00 0.00 73 1022.1
20220928091738 50 0 0.0 1.0 0.00 0.00 0.00 73 1022.1
20220928091243 49 127 0.0 1.0 0.00 0.00 0.00 73 1022.0
20220928090738 49 0 0.0 0.0 0.00 0.00 0.00 74 1022.1
20220928090241 49 0 0.0 0.0 0.00 0.00 0.00 73 1022.0
20220928085740 50 0 0.0 1.0 0.00 0.00 0.00 74 1022.1
20220928085237 50 0 0.0 1.0 0.00 0.00 0.00 74 1022.0
20220928084736 50 0 0.0 1.0 0.00 0.00 0.00 72 1021.9
20220928084236 50 0 0.0 1.0 0.00 0.00 0.00 72 1021.9
20220928083735 51 0 0.0 2.0 0.00 0.00 0.00 72 1021.7
20220928083237 51 0 0.0 2.0 0.00 0.00 0.00 71 1021.7
20220928082737 51 0 0.0 0.0 0.00 0.00 0.00 69 1021.7
20220928082242 51 0 0.0 0.0 0.00 0.00 0.00 69 1021.6
20220928081735 52 0 0.0 1.0 0.00 0.00 0.00 71 1021.8
20220928081239 52 0 0.0 1.0 0.00 0.00 0.00 70 1021.7
20220928080736 52 135 1.0 1.0 0.00 0.00 0.00 70 1021.7
20220928080238 53 0 0.0 1.0 0.00 0.00 0.00 65 1021.8
20220928075744 53 0 0.0 1.0 0.00 0.00 0.00 65 1021.8
20220928075237 53 0 0.0 1.0 0.00 0.00 0.00 65 1021.8
20220928074738 54 0 0.0 1.0 0.00 0.00 0.00 64 1021.8
20220928074242 54 0 0.0 4.0 0.00 0.00 0.00 63 1021.7
20220928073736 54 0 0.0 4.0 0.00 0.00 0.00 64 1021.8
20220928073241 54 158 0.0 2.0 0.00 0.00 0.00 64 1021.7
20220928072740 54 0 0.0 2.0 0.00 0.00 0.00 63 1021.7
20220928072240 54 145 0.0 2.0 0.00 0.00 0.00 63 1021.8
20220928071735 54 0 0.0 2.0 0.00 0.00 0.00 64 1021.8
20220928071240 54 139 0.0 2.0 0.00 0.00 0.00 64 1021.8
20220928070737 54 126 1.0 2.0 0.00 0.00 0.00 65 1021.8
20220928070235 54 155 1.0 1.0 0.00 0.00 0.00 65 1021.7
20220928065739 54 137 1.0 1.0 0.00 0.00 0.00 64 1021.7
20220928065238 54 0 0.0 1.0 0.00 0.00 0.00 64 1021.7
20220928064737 54 0 0.0 2.0 0.00 0.00 0.00 64 1021.7
20220928064235 54 0 0.0 2.0 0.00 0.00 0.00 64 1021.7
20220928063739 54 110 0.0 2.0 0.00 0.00 0.00 64 1021.6
20220928063239 54 147 1.0 1.0 0.00 0.00 0.00 64 1021.6
20220928062738 55 0 0.0 1.0 0.00 0.00 0.00 64 1021.6
20220928062239 55 0 0.0 2.0 0.00 0.00 0.00 63 1021.5
20220928061740 55 0 0.0 2.0 0.00 0.00 0.00 62 1021.5
20220928061241 56 0 0.0 3.0 0.00 0.00 0.00 61 1021.4
20220928060738 56 144 0.0 4.0 0.00 0.00 0.00 61 1021.4
20220928060242 56 152 3.0 4.0 0.00 0.00 0.00 60 1021.3
20220928055741 56 174 2.0 4.0 0.00 0.00 0.00 61 1021.4
20220928055238 56 121 1.0 2.0 0.00 0.00 0.00 61 1021.2
20220928054737 56 108 1.0 4.0 0.00 0.00 0.00 61 1021.1
20220928054237 56 119 0.0 4.0 0.00 0.00 0.00 60 1021.2
20220928053738 56 0 0.0 3.0 0.00 0.00 0.00 60 1021.1
20220928053242 56 153 2.0 3.0 0.00 0.00 0.00 60 1021.4
20220928052741 56 144 1.0 3.0 0.00 0.00 0.00 60 1021.3
20220928052244 56 0 0.0 2.0 0.00 0.00 0.00 60 1021.3
20220928051737 56 134 0.0 2.0 0.00 0.00 0.00 60 1021.2
20220928051236 57 0 0.0 2.0 0.00 0.00 0.00 60 1021.3